Easton, United Kingdom
Current Conditions -  °F | °C
As of 7:20 AM on Saturday 25 Oct 2014 (Local Time) from EGHH Reporting Station
Overcast Overcast  
Wind Chill: 50°   Ceiling: 3800
Heat Index: 50°   Visibility: 6mi
Dew Point: 46°   Wind: 2mph
Humidity: 87%   Direction: 280°W
Pressure: 30.03"   Gusts: NA
Location:  50.53°N, 2.45°W
Report Text: EGHH 250620Z 28002KT 9999 OVC038 10/08 Q1017
Loading
Personal Weather Stations






























Interactive Weather Map
Tropical Storm Tracking
New forecast layout! Learn more

10-Day Weather Forecast

Advertisements
Track Severe Weather on mobile